Time;durP1;ratioP1;P1;durP2;ratioP2;P2;SDS_P1;SDS_P2;PMS_P1;PMS_P2;Temp;Humidity;BMP_temperature;BMP_pressure;BME280_temperature;BME280_humidity;BME280_pressure;Samples;Min_cycle;Max_cycle;Signal;HPM_P1;HPM_P2
2021/12/09 00:02:18;;;;;;;29.70;22.13;;;17.50;51.50;;;;;;4984946;28;20054;-62
2021/12/09 00:04:44;;;;;;;29.60;20.33;;;17.50;51.50;;;;;;4984382;28;20061;-63
2021/12/09 00:07:09;;;;;;;29.17;20.50;;;17.50;51.40;;;;;;4984670;28;20046;-66
2021/12/09 00:09:35;;;;;;;30.23;21.33;;;17.50;51.40;;;;;;4969138;28;20109;-63
2021/12/09 00:12:01;;;;;;;28.52;20.35;;;17.50;51.40;;;;;;4970117;28;20046;-63
2021/12/09 00:14:28;;;;;;;28.95;20.17;;;17.50;51.30;;;;;;4970411;28;20527;-62
2021/12/09 00:16:55;;;;;;;28.25;19.02;;;17.50;51.30;;;;;;4969536;28;20082;-63
2021/12/09 00:19:20;;;;;;;27.52;18.75;;;17.60;51.30;;;;;;4984269;28;20545;-62
2021/12/09 00:21:46;;;;;;;27.30;19.80;;;17.50;51.20;;;;;;4952510;28;20035;-63
2021/12/09 00:24:11;;;;;;;23.73;18.48;;;17.60;51.10;;;;;;4969848;28;20042;-63
2021/12/09 00:26:38;;;;;;;25.00;18.05;;;17.60;51.00;;;;;;4970577;28;20398;-62
2021/12/09 00:29:04;;;;;;;25.73;18.25;;;17.60;51.00;;;;;;4968356;28;20026;-62
2021/12/09 00:31:30;;;;;;;22.98;18.67;;;17.60;51.00;;;;;;4969662;28;20049;-62
2021/12/09 00:33:57;;;;;;;27.17;19.30;;;17.60;51.10;;;;;;4975441;28;20030;-62
2021/12/09 00:36:34;;;;;;;25.02;17.17;;;17.60;50.90;;;;;;4984429;28;20093;-63
2021/12/09 00:39:00;;;;;;;23.15;17.27;;;17.60;50.90;;;;;;4968575;28;20035;-63
2021/12/09 00:41:25;;;;;;;23.45;17.48;;;17.60;51.60;;;;;;4967896;28;20031;-62
2021/12/09 00:43:51;;;;;;;22.50;17.40;;;17.60;50.90;;;;;;4969189;28;20093;-63
2021/12/09 00:46:17;;;;;;;23.75;17.70;;;17.70;50.90;;;;;;4983529;28;20042;-63
2021/12/09 00:48:42;;;;;;;23.23;18.23;;;17.60;50.80;;;;;;4967593;28;20035;-63
2021/12/09 00:51:08;;;;;;;22.58;16.88;;;17.70;50.80;;;;;;4968944;28;20031;-62
2021/12/09 00:53:33;;;;;;;22.63;17.30;;;17.70;51.40;;;;;;4969509;28;20027;-62
2021/12/09 00:55:59;;;;;;;20.67;15.90;;;17.70;50.70;;;;;;4984023;28;20033;-63
2021/12/09 00:58:24;;;;;;;23.38;17.15;;;17.70;50.70;;;;;;4969245;28;20414;-62
2021/12/09 01:00:50;;;;;;;24.42;17.63;;;17.70;50.50;;;;;;4969620;28;20034;-62
2021/12/09 01:03:16;;;;;;;21.00;16.92;;;17.70;50.50;;;;;;4967752;28;20035;-63
2021/12/09 01:05:43;;;;;;;19.60;16.15;;;17.70;50.50;;;;;;4968510;28;20031;-63
2021/12/09 01:08:09;;;;;;;20.40;15.45;;;17.70;50.50;;;;;;4969320;28;20253;-62
2021/12/09 01:10:34;;;;;;;21.25;16.35;;;17.70;50.50;;;;;;4969084;28;20030;-63
2021/12/09 01:13:00;;;;;;;22.30;16.77;;;17.70;50.40;;;;;;4984264;28;20027;-62
2021/12/09 01:15:26;;;;;;;18.40;15.30;;;17.70;50.40;;;;;;4968728;28;20101;-63
2021/12/09 01:17:51;;;;;;;19.50;16.30;;;17.70;50.20;;;;;;4969286;28;20199;-63
2021/12/09 01:20:17;;;;;;;22.65;17.58;;;17.70;50.20;;;;;;4984170;28;20109;-63
2021/12/09 01:22:44;;;;;;;21.38;16.92;;;17.70;50.20;;;;;;4984156;28;20046;-63
2021/12/09 01:25:11;;;;;;;21.27;16.63;;;17.70;50.20;;;;;;4984726;28;20129;-62
2021/12/09 01:27:39;;;;;;;22.58;16.95;;;17.70;50.10;;;;;;4983905;28;20411;-62
2021/12/09 01:30:11;;;;;;;20.27;15.52;;;17.70;50.10;;;;;;4967548;28;20157;-62
2021/12/09 01:32:37;;;;;;;22.27;15.98;;;17.70;50.10;;;;;;4982470;28;20503;-63
2021/12/09 01:35:03;;;;;;;21.75;16.55;;;17.70;50.10;;;;;;4983546;28;20038;-63
2021/12/09 01:37:29;;;;;;;19.77;16.05;;;17.80;50.00;;;;;;4968209;28;20053;-62
2021/12/09 01:39:55;;;;;;;22.38;17.00;;;17.80;50.00;;;;;;4967241;28;20058;-62
2021/12/09 01:42:20;;;;;;;21.88;16.25;;;17.80;49.90;;;;;;4968385;28;20049;-63
2021/12/09 01:44:46;;;;;;;18.17;15.27;;;17.70;49.90;;;;;;4983124;28;20435;-62
2021/12/09 01:47:11;;;;;;;21.35;16.70;;;17.70;49.90;;;;;;4983640;28;20042;-63
2021/12/09 01:49:37;;;;;;;20.30;15.70;;;17.70;49.90;;;;;;4983221;28;20030;-63
2021/12/09 01:52:04;;;;;;;20.08;14.93;;;17.70;49.90;;;;;;4983395;28;20042;-63
2021/12/09 01:54:29;;;;;;;19.38;15.05;;;17.80;49.90;;;;;;4983703;28;20039;-63
2021/12/09 01:56:55;;;;;;;18.33;14.57;;;17.80;49.90;;;;;;4983377;28;20518;-62
2021/12/09 01:59:20;;;;;;;20.33;15.68;;;17.70;49.80;;;;;;4951338;28;20062;-63
2021/12/09 02:01:46;;;;;;;18.77;15.90;;;17.80;49.90;;;;;;4968791;28;20073;-62
2021/12/09 02:04:13;;;;;;;19.75;15.10;;;17.80;49.80;;;;;;4984562;28;20035;-62
2021/12/09 02:06:40;;;;;;;20.83;15.93;;;17.80;49.70;;;;;;4967153;28;20027;-62
2021/12/09 02:09:07;;;;;;;21.35;16.15;;;17.70;49.80;;;;;;4982604;28;20055;-62
2021/12/09 02:11:33;;;;;;;22.15;16.60;;;17.70;49.80;;;;;;4966923;28;20045;-62
2021/12/09 02:13:58;;;;;;;18.58;15.75;;;17.70;50.40;;;;;;4968374;28;20487;-63
2021/12/09 02:16:24;;;;;;;19.55;15.10;;;17.70;49.80;;;;;;4967932;28;20058;-63
2021/12/09 02:18:50;;;;;;;19.42;15.35;;;17.70;49.90;;;;;;4982755;28;20106;-64
2021/12/09 02:21:20;;;;;;;18.33;14.45;;;17.60;50.00;;;;;;4967899;28;20038;-62
2021/12/09 02:23:48;;;;;;;21.73;14.05;;;17.60;49.90;;;;;;4982903;28;20031;-62
2021/12/09 02:26:14;;;;;;;17.65;14.23;;;17.60;50.00;;;;;;4968408;28;20034;-62
2021/12/09 02:28:40;;;;;;;19.05;14.60;;;17.50;50.00;;;;;;4983238;28;20031;-62
2021/12/09 02:31:05;;;;;;;20.83;15.57;;;17.50;50.10;;;;;;4968342;28;20639;-62
2021/12/09 02:33:31;;;;;;;19.10;15.10;;;17.50;50.10;;;;;;4983018;28;20126;-62
2021/12/09 02:35:57;;;;;;;19.15;15.02;;;17.50;50.10;;;;;;4951155;28;20047;-62
2021/12/09 02:38:22;;;;;;;18.30;14.13;;;17.50;50.10;;;;;;4968213;28;20031;-61
2021/12/09 02:40:49;;;;;;;19.58;15.43;;;17.40;50.20;;;;;;4968539;28;20122;-62
2021/12/09 02:43:14;;;;;;;16.77;14.02;;;17.40;50.10;;;;;;4968411;28;20047;-62
2021/12/09 02:45:42;;;;;;;18.95;14.07;;;17.40;50.20;;;;;;4988268;28;20038;-62
2021/12/09 02:48:07;;;;;;;18.73;13.93;;;17.40;50.20;;;;;;4989334;28;20394;-62
2021/12/09 02:50:33;;;;;;;17.08;13.32;;;17.40;50.20;;;;;;4972533;28;20042;-63
2021/12/09 02:52:58;;;;;;;18.08;14.23;;;17.40;50.20;;;;;;4989953;28;20030;-62
2021/12/09 02:55:24;;;;;;;18.10;14.32;;;17.40;50.30;;;;;;4986712;28;20042;-63
2021/12/09 02:57:53;;;;;;;17.95;13.88;;;17.40;50.40;;;;;;4985156;28;20027;-62
2021/12/09 03:00:20;;;;;;;18.92;14.63;;;17.40;50.30;;;;;;4971774;28;20034;-61
2021/12/09 03:02:46;;;;;;;19.17;14.98;;;17.40;50.40;;;;;;4990991;28;20022;-62
2021/12/09 03:05:11;;;;;;;18.60;14.57;;;17.40;51.10;;;;;;4990084;28;20398;-62
2021/12/09 03:07:39;;;;;;;18.13;14.25;;;17.40;50.50;;;;;;4973241;28;20096;-63
2021/12/09 03:10:09;;;;;;;16.58;13.90;;;17.40;50.50;;;;;;4989473;28;20052;-63
2021/12/09 03:12:35;;;;;;;18.70;14.93;;;17.40;50.50;;;;;;4991221;28;20046;-62
2021/12/09 03:15:01;;;;;;;18.50;14.93;;;17.40;50.40;;;;;;4991388;28;20120;-63
2021/12/09 03:17:27;;;;;;;17.67;14.40;;;17.40;50.40;;;;;;4973026;28;20081;-63
2021/12/09 03:19:53;;;;;;;18.10;14.10;;;17.40;50.40;;;;;;4988940;28;20034;-63
2021/12/09 03:22:19;;;;;;;18.15;14.45;;;17.40;50.40;;;;;;4988307;28;20031;-62
2021/12/09 03:24:44;;;;;;;16.38;12.82;;;17.40;50.40;;;;;;4972669;28;20037;-62
2021/12/09 03:27:10;;;;;;;17.27;14.52;;;17.40;50.50;;;;;;4989529;28;20051;-62
2021/12/09 03:29:35;;;;;;;16.67;13.73;;;17.40;50.50;;;;;;4988628;28;20030;-62
2021/12/09 03:32:04;;;;;;;15.85;12.90;;;17.40;50.40;;;;;;4990011;28;20057;-62
2021/12/09 03:34:30;;;;;;;17.17;14.32;;;17.40;50.40;;;;;;4988911;28;20110;-62
2021/12/09 03:36:57;;;;;;;19.75;15.23;;;17.40;50.40;;;;;;4973374;28;20026;-62
2021/12/09 03:39:22;;;;;;;16.38;14.13;;;17.40;50.40;;;;;;4988707;28;20571;-62
2021/12/09 03:41:50;;;;;;;17.17;14.05;;;17.40;50.40;;;;;;4989207;28;20125;-62
2021/12/09 03:44:16;;;;;;;16.30;13.57;;;17.40;50.40;;;;;;4988554;28;20516;-62
2021/12/09 03:46:41;;;;;;;16.50;13.63;;;17.40;50.30;;;;;;4989323;28;20038;-62
2021/12/09 03:49:07;;;;;;;19.08;14.23;;;17.40;50.40;;;;;;4988542;28;20600;-62
2021/12/09 03:51:35;;;;;;;17.70;13.57;;;17.40;50.30;;;;;;4988991;28;20054;-62
2021/12/09 03:54:02;;;;;;;17.02;13.73;;;17.50;50.30;;;;;;4988301;28;20093;-62
2021/12/09 03:56:27;;;;;;;17.73;13.68;;;17.40;50.30;;;;;;4986706;28;20125;-63
2021/12/09 03:58:53;;;;;;;16.73;13.73;;;17.50;50.30;;;;;;4988191;28;20113;-62
2021/12/09 04:01:18;;;;;;;17.98;14.10;;;17.50;50.30;;;;;;4980678;28;20165;-63
2021/12/09 04:03:44;;;;;;;15.45;13.05;;;17.50;50.30;;;;;;4971691;28;20038;-63
2021/12/09 04:06:09;;;;;;;19.73;13.93;;;17.50;50.30;;;;;;4972393;28;20112;-62
2021/12/09 04:08:35;;;;;;;16.10;13.57;;;17.50;50.30;;;;;;4988465;28;20099;-62
2021/12/09 04:11:01;;;;;;;16.60;13.10;;;17.50;50.30;;;;;;4971835;28;20475;-62
2021/12/09 04:13:28;;;;;;;17.65;14.00;;;17.50;50.30;;;;;;4971588;28;20039;-62
2021/12/09 04:15:53;;;;;;;16.77;12.73;;;17.50;50.30;;;;;;4987274;28;20053;-63
2021/12/09 04:18:20;;;;;;;17.48;13.77;;;17.50;50.20;;;;;;4987526;28;20113;-62
2021/12/09 04:20:46;;;;;;;18.67;13.63;;;17.50;50.30;;;;;;4986735;28;20538;-63
2021/12/09 04:23:11;;;;;;;16.55;13.65;;;17.60;50.30;;;;;;4972110;28;20053;-62
2021/12/09 04:25:37;;;;;;;18.05;13.88;;;17.60;50.30;;;;;;4971214;28;20030;-62
2021/12/09 04:28:03;;;;;;;16.33;13.23;;;17.60;50.30;;;;;;4989163;28;20015;-63
2021/12/09 04:30:29;;;;;;;15.68;12.63;;;17.60;50.30;;;;;;4970807;28;20033;-63
2021/12/09 04:32:55;;;;;;;15.73;13.20;;;17.60;50.30;;;;;;4970777;28;20018;-63
2021/12/09 04:35:20;;;;;;;15.25;12.73;;;17.60;50.20;;;;;;4988553;28;20037;-63
2021/12/09 04:37:47;;;;;;;14.93;12.98;;;17.60;50.30;;;;;;4987105;28;20022;-65
2021/12/09 04:40:12;;;;;;;15.65;13.07;;;17.60;50.30;;;;;;4986941;28;20157;-63
2021/12/09 04:42:38;;;;;;;15.13;12.55;;;17.60;50.30;;;;;;4971058;28;20113;-63
2021/12/09 04:45:04;;;;;;;15.43;12.38;;;17.60;50.20;;;;;;4988198;28;20030;-63
2021/12/09 04:47:30;;;;;;;16.65;13.20;;;17.60;50.30;;;;;;4988423;28;20030;-63
2021/12/09 04:49:55;;;;;;;14.27;11.60;;;17.60;50.20;;;;;;5004814;23;20023;-74
2021/12/09 04:52:21;;;;;;;14.32;12.52;;;17.60;50.20;;;;;;4986308;28;20030;-74
2021/12/09 04:54:46;;;;;;;15.13;12.07;;;17.60;50.10;;;;;;4987350;28;20113;-73
2021/12/09 04:57:12;;;;;;;15.02;12.45;;;17.60;50.20;;;;;;4987550;28;20100;-74
2021/12/09 04:59:38;;;;;;;15.20;12.35;;;17.60;50.20;;;;;;4970646;28;20038;-74
2021/12/09 05:02:06;;;;;;;15.07;12.98;;;17.60;50.10;;;;;;4987858;28;20042;-73
2021/12/09 05:04:31;;;;;;;15.55;12.63;;;17.60;50.10;;;;;;4979539;28;20100;-74
2021/12/09 05:06:57;;;;;;;15.10;11.70;;;17.60;50.00;;;;;;4988791;28;20498;-73
2021/12/09 05:09:23;;;;;;;14.23;12.07;;;17.70;50.00;;;;;;4970234;28;20049;-73
2021/12/09 05:11:49;;;;;;;14.90;11.60;;;17.70;50.00;;;;;;4966374;28;20336;-74
2021/12/09 05:14:16;;;;;;;15.02;11.20;;;17.70;49.90;;;;;;4971669;28;20038;-73
2021/12/09 05:16:43;;;;;;;14.52;12.35;;;17.70;49.90;;;;;;4987174;28;20034;-73
2021/12/09 05:19:08;;;;;;;16.38;11.77;;;17.70;50.00;;;;;;4987958;28;20112;-75
2021/12/09 05:21:37;;;;;;;14.30;12.10;;;17.70;50.00;;;;;;4987599;28;20065;-74
2021/12/09 05:24:03;;;;;;;13.88;12.35;;;17.70;49.90;;;;;;4971507;28;20104;-75
2021/12/09 05:26:34;;;;;;;13.50;11.57;;;17.80;50.00;;;;;;5003885;23;20084;-51
2021/12/09 05:29:00;;;;;;;15.10;11.52;;;17.70;49.90;;;;;;5013649;28;20041;-56
2021/12/09 05:34:10;;;;;;;17.48;12.80;;;17.70;49.90;;;;;;5002078;28;20096;-54
2021/12/09 05:36:36;;;;;;;27.05;14.48;;;17.70;50.00;;;;;;5005531;28;20069;-56
2021/12/09 05:39:03;;;;;;;18.00;14.00;;;17.70;50.00;;;;;;5004730;28;20038;-55
2021/12/09 05:41:28;;;;;;;19.58;13.77;;;17.80;50.10;;;;;;5004023;28;20684;-55
2021/12/09 05:43:54;;;;;;;23.70;13.10;;;17.80;50.30;;;;;;5000693;28;20034;-55
2021/12/09 05:46:22;;;;;;;19.30;13.30;;;17.70;50.50;;;;;;5002339;28;20401;-51
2021/12/09 05:48:49;;;;;;;20.55;12.70;;;17.70;50.70;;;;;;5001365;28;20053;-54
2021/12/09 05:51:14;;;;;;;20.02;13.32;;;17.70;50.90;;;;;;5003180;28;20497;-51
2021/12/09 05:53:40;;;;;;;18.83;12.95;;;17.70;51.00;;;;;;5000780;28;20040;-52
2021/12/09 05:56:05;;;;;;;17.95;12.95;;;17.60;51.60;;;;;;5002018;28;20045;-58
2021/12/09 05:58:31;;;;;;;18.25;12.68;;;17.60;51.00;;;;;;5001260;28;20054;-56
2021/12/09 06:00:56;;;;;;;19.00;12.57;;;17.60;51.00;;;;;;5001902;28;20026;-54
2021/12/09 06:03:22;;;;;;;20.83;12.73;;;17.60;51.10;;;;;;5002752;28;20034;-51
2021/12/09 06:05:48;;;;;;;17.27;12.15;;;17.60;51.10;;;;;;5003120;28;20041;-54
2021/12/09 06:08:14;;;;;;;17.73;13.00;;;17.60;51.10;;;;;;5003081;28;20125;-54
2021/12/09 06:10:39;;;;;;;18.48;12.90;;;17.60;51.10;;;;;;5001368;28;20108;-52
2021/12/09 06:13:05;;;;;;;17.85;12.73;;;17.60;51.10;;;;;;5001513;28;20111;-51
2021/12/09 06:15:30;;;;;;;16.98;12.27;;;17.60;51.10;;;;;;5001641;28;20509;-53
2021/12/09 06:17:56;;;;;;;17.65;11.82;;;17.60;51.80;;;;;;5000988;28;20057;-57
2021/12/09 06:20:21;;;;;;;19.20;12.73;;;17.60;51.10;;;;;;5001104;28;20522;-53
2021/12/09 06:22:47;;;;;;;24.50;13.68;;;17.60;51.20;;;;;;5002160;28;20065;-60
2021/12/09 06:25:17;;;;;;;37.35;18.88;;;17.60;51.60;;;;;;5000359;28;20029;-53
2021/12/09 06:27:44;;;;;;;40.70;19.63;;;17.60;51.90;;;;;;5000251;28;20715;-55
2021/12/09 06:30:10;;;;;;;37.25;19.50;;;17.60;52.10;;;;;;4999962;28;20348;-53
2021/12/09 06:32:35;;;;;;;39.97;19.15;;;17.60;52.10;;;;;;4996811;28;20053;-53
2021/12/09 06:35:03;;;;;;;35.28;19.23;;;17.60;52.10;;;;;;5009918;28;20045;-52
2021/12/09 06:37:28;;;;;;;43.88;18.95;;;17.60;52.20;;;;;;5000807;28;20417;-55
2021/12/09 06:39:54;;;;;;;35.85;19.38;;;17.60;52.20;;;;;;5000459;28;20025;-55
2021/12/09 06:42:20;;;;;;;34.58;19.13;;;17.60;52.10;;;;;;5001897;28;20065;-55
2021/12/09 06:44:46;;;;;;;33.05;17.77;;;17.60;52.00;;;;;;5002098;28;20033;-56
2021/12/09 06:47:11;;;;;;;29.55;16.15;;;17.60;52.00;;;;;;5002018;28;20386;-53
2021/12/09 06:49:37;;;;;;;32.15;16.17;;;17.60;52.00;;;;;;5000797;28;20689;-56
2021/12/09 06:52:03;;;;;;;28.90;14.85;;;17.60;52.00;;;;;;5000959;28;20022;-52
2021/12/09 06:54:28;;;;;;;25.08;14.57;;;17.60;52.10;;;;;;5001621;28;20084;-52
2021/12/09 06:56:53;;;;;;;25.35;14.75;;;17.60;52.20;;;;;;4984052;28;20038;-55
2021/12/09 06:59:19;;;;;;;24.77;15.05;;;17.60;52.70;;;;;;5001028;28;20034;-55
2021/12/09 07:01:44;;;;;;;24.45;15.10;;;17.60;53.20;;;;;;5001549;28;20026;-57
2021/12/09 07:04:10;;;;;;;25.58;15.20;;;17.60;53.10;;;;;;5001686;28;20073;-56
2021/12/09 07:06:37;;;;;;;23.17;14.55;;;17.60;52.80;;;;;;4983967;28;20032;-55
2021/12/09 07:09:04;;;;;;;21.95;13.80;;;17.60;52.30;;;;;;5000048;28;20157;-55
2021/12/09 07:11:31;;;;;;;24.67;15.35;;;17.60;51.80;;;;;;5000929;28;20045;-56
2021/12/09 07:13:56;;;;;;;22.00;14.02;;;17.60;51.30;;;;;;5001790;28;20084;-55
2021/12/09 07:16:22;;;;;;;21.33;14.85;;;17.60;50.90;;;;;;5001175;28;20112;-56
2021/12/09 07:18:48;;;;;;;23.70;13.63;;;17.60;50.70;;;;;;5001538;28;20042;-52
2021/12/09 07:21:13;;;;;;;21.17;13.10;;;17.60;50.70;;;;;;5001046;28;20038;-56
2021/12/09 07:23:39;;;;;;;20.77;13.15;;;17.60;50.50;;;;;;5000750;28;20038;-56
2021/12/09 07:26:04;;;;;;;23.13;13.70;;;17.60;50.50;;;;;;5001221;28;20034;-54
2021/12/09 07:28:30;;;;;;;21.80;12.60;;;17.60;50.70;;;;;;4983720;28;20129;-56
2021/12/09 07:30:56;;;;;;;17.77;11.75;;;17.60;50.90;;;;;;5001523;28;20022;-55
2021/12/09 07:33:21;;;;;;;20.70;12.73;;;17.50;50.90;;;;;;5005434;28;20066;-53
2021/12/09 07:35:47;;;;;;;26.23;13.60;;;17.50;50.90;;;;;;5005488;28;20392;-55
2021/12/09 07:38:13;;;;;;;24.23;12.13;;;17.50;50.90;;;;;;5004599;28;20037;-56
2021/12/09 07:40:38;;;;;;;18.65;11.70;;;17.50;50.90;;;;;;5000462;28;20036;-55
2021/12/09 07:43:04;;;;;;;22.33;12.82;;;17.50;50.90;;;;;;5004135;28;20038;-55
2021/12/09 07:45:30;;;;;;;19.90;12.00;;;17.50;50.90;;;;;;5004163;28;20049;-54
2021/12/09 07:47:56;;;;;;;16.65;11.65;;;17.40;51.00;;;;;;5004022;28;20030;-52
2021/12/09 07:50:23;;;;;;;19.25;11.55;;;17.40;51.00;;;;;;5004045;28;20022;-56
2021/12/09 07:52:50;;;;;;;17.45;10.88;;;17.40;51.00;;;;;;5003297;28;20040;-57
2021/12/09 07:55:16;;;;;;;25.05;12.88;;;17.40;51.10;;;;;;5002462;28;20116;-54
2021/12/09 07:57:41;;;;;;;19.58;11.25;;;17.40;51.20;;;;;;5004775;28;20607;-55
2021/12/09 08:00:12;;;;;;;20.48;10.50;;;17.40;51.20;;;;;;5003257;28;20113;-54
2021/12/09 08:02:44;;;;;;;19.20;11.75;;;17.40;51.30;;;;;;5002917;28;20405;-55
2021/12/09 08:05:10;;;;;;;19.63;12.00;;;17.30;51.30;;;;;;5003011;28;20030;-55
2021/12/09 08:07:36;;;;;;;18.10;11.70;;;17.30;51.20;;;;;;4986744;28;20038;-55
2021/12/09 08:10:01;;;;;;;22.98;12.30;;;17.30;51.00;;;;;;5001663;28;20087;-52
2021/12/09 08:12:27;;;;;;;22.67;11.57;;;17.30;51.00;;;;;;5002651;28;20030;-56
2021/12/09 08:14:52;;;;;;;18.80;11.18;;;17.30;51.00;;;;;;5003296;28;20112;-55
2021/12/09 08:20:05;;;;;;;20.67;13.00;;;17.30;51.00;;;;;;5002383;28;20076;-54
2021/12/09 08:22:32;;;;;;;20.58;13.07;;;17.30;51.00;;;;;;5001523;28;20091;-56
2021/12/09 08:24:58;;;;;;;20.55;11.77;;;17.30;51.00;;;;;;5001805;28;20172;-55
2021/12/09 08:27:24;;;;;;;16.15;10.57;;;17.30;51.00;;;;;;5003485;28;20049;-55
2021/12/09 08:29:49;;;;;;;18.98;11.20;;;17.30;51.00;;;;;;5003542;28;20034;-53
2021/12/09 08:32:15;;;;;;;19.80;11.65;;;17.30;50.90;;;;;;5003451;28;20029;-51
2021/12/09 08:34:40;;;;;;;20.20;11.68;;;17.30;50.90;;;;;;4996257;28;20389;-55
2021/12/09 08:37:06;;;;;;;19.35;11.82;;;17.30;50.90;;;;;;5002359;28;20026;-57
2021/12/09 08:39:31;;;;;;;20.25;11.68;;;17.30;50.80;;;;;;5001264;28;20117;-56
2021/12/09 08:41:57;;;;;;;19.17;12.43;;;17.40;50.70;;;;;;5003431;28;20050;-53
2021/12/09 08:44:22;;;;;;;19.20;12.48;;;17.40;50.70;;;;;;5002914;28;20034;-55
2021/12/09 08:46:48;;;;;;;18.88;12.38;;;17.40;50.50;;;;;;5003305;28;20108;-54
2021/12/09 08:49:13;;;;;;;19.13;11.65;;;17.50;50.50;;;;;;5002516;28;20727;-52
2021/12/09 08:51:39;;;;;;;19.05;11.43;;;17.50;50.40;;;;;;5002501;28;20034;-52
2021/12/09 08:54:05;;;;;;;17.70;11.55;;;17.50;50.40;;;;;;5001698;28;20030;-51
2021/12/09 08:56:31;;;;;;;16.55;12.43;;;17.50;50.40;;;;;;5001987;28;20469;-57
2021/12/09 08:58:56;;;;;;;18.05;11.68;;;17.60;50.50;;;;;;5002407;28;20061;-54
2021/12/09 09:01:22;;;;;;;18.23;11.45;;;17.60;50.40;;;;;;5002433;28;20030;-54
2021/12/09 09:03:47;;;;;;;16.45;11.10;;;17.60;50.40;;;;;;4995763;28;20033;-54
2021/12/09 09:06:13;;;;;;;19.33;12.32;;;17.60;50.40;;;;;;5007204;28;20034;-55
2021/12/09 09:08:38;;;;;;;18.00;12.20;;;17.60;50.40;;;;;;5001464;28;20022;-53
2021/12/09 09:11:04;;;;;;;14.05;10.95;;;17.60;50.40;;;;;;5002737;28;20026;-55
2021/12/09 09:13:30;;;;;;;17.70;11.32;;;17.60;50.40;;;;;;5002074;28;20077;-55
2021/12/09 09:15:55;;;;;;;19.48;12.00;;;17.60;50.50;;;;;;5002806;28;20099;-53
2021/12/09 09:18:22;;;;;;;16.00;11.02;;;17.50;50.50;;;;;;5002397;28;20524;-55
2021/12/09 09:20:47;;;;;;;18.13;11.80;;;17.50;50.70;;;;;;5000955;28;20105;-52
2021/12/09 09:23:15;;;;;;;18.42;11.00;;;17.50;50.70;;;;;;4998504;28;20121;-56
2021/12/09 09:25:40;;;;;;;15.68;10.48;;;17.50;50.70;;;;;;5000691;28;20088;-55
2021/12/09 09:28:07;;;;;;;15.68;11.32;;;17.50;50.70;;;;;;5000788;28;20030;-57
2021/12/09 09:30:36;;;;;;;17.42;11.20;;;17.50;50.70;;;;;;5002325;28;20190;-54
2021/12/09 09:33:11;;;;;;;13.77;11.38;;;17.50;50.80;;;;;;5001302;28;20041;-54
2021/12/09 09:35:37;;;;;;;17.25;11.80;;;17.50;50.80;;;;;;5002065;28;20076;-55
2021/12/09 09:38:03;;;;;;;16.75;10.93;;;17.50;50.80;;;;;;5002110;28;20026;-53
2021/12/09 09:40:30;;;;;;;16.42;10.85;;;17.50;50.80;;;;;;5000410;28;20033;-52
2021/12/09 09:43:03;;;;;;;15.77;10.90;;;17.50;50.90;;;;;;4984985;28;20461;-54
2021/12/09 09:45:28;;;;;;;14.65;10.68;;;17.50;50.80;;;;;;4999572;28;20077;-53
2021/12/09 09:47:54;;;;;;;13.13;10.70;;;17.50;50.80;;;;;;5002271;28;20139;-54
2021/12/09 09:50:20;;;;;;;15.30;10.82;;;17.50;50.80;;;;;;5002236;28;20513;-57
2021/12/09 09:52:45;;;;;;;15.55;10.93;;;17.50;50.90;;;;;;5000876;28;20056;-51
2021/12/09 09:55:14;;;;;;;14.68;10.90;;;17.50;50.80;;;;;;4999893;28;20125;-52
2021/12/09 09:57:40;;;;;;;13.35;10.18;;;17.50;50.80;;;;;;5001711;28;20041;-53
2021/12/09 10:00:08;;;;;;;15.02;10.50;;;17.50;50.70;;;;;;4999413;28;20056;-52
2021/12/09 10:02:33;;;;;;;14.73;10.13;;;17.50;50.70;;;;;;5000203;28;20084;-51
2021/12/09 10:05:04;;;;;;;14.35;9.80;;;17.50;50.70;;;;;;5001571;28;20029;-54
2021/12/09 10:07:30;;;;;;;12.38;10.15;;;17.50;50.70;;;;;;5002114;28;20029;-53
2021/12/09 10:09:56;;;;;;;13.60;10.10;;;17.50;50.60;;;;;;5001055;28;20034;-56
2021/12/09 10:12:21;;;;;;;15.02;10.38;;;17.60;50.50;;;;;;5002272;28;20026;-56
2021/12/09 10:14:49;;;;;;;14.77;10.25;;;17.50;50.40;;;;;;5002249;28;20045;-52
2021/12/09 10:17:15;;;;;;;13.13;10.27;;;17.50;50.30;;;;;;5001560;28;20041;-55
2021/12/09 10:20:01;;;;;;;13.85;9.95;;;17.50;50.30;;;;;;5000937;28;20100;-54
2021/12/09 10:22:31;;;;;;;;;;;17.50;50.20;;;;;;5002243;28;20034;-55
2021/12/09 10:24:57;;;;;;;13.30;10.00;;;17.50;50.30;;;;;;5001082;28;19937;-53
2021/12/09 10:27:29;;;;;;;14.25;10.30;;;17.50;50.30;;;;;;5001360;28;20390;-54
2021/12/09 10:30:08;;;;;;;13.10;9.63;;;17.50;50.40;;;;;;5000873;28;20083;-55
2021/12/09 10:32:35;;;;;;;12.55;9.82;;;17.50;50.40;;;;;;5000004;28;20034;-52
2021/12/09 10:35:05;;;;;;;13.40;10.07;;;17.50;50.40;;;;;;5000561;28;20033;-56
2021/12/09 10:37:33;;;;;;;11.52;9.50;;;17.50;50.30;;;;;;5000151;28;20029;-57
2021/12/09 10:40:12;;;;;;;10.75;9.18;;;17.60;50.30;;;;;;4999201;28;20044;-56
2021/12/09 10:42:46;;;;;;;11.48;8.88;;;17.60;50.10;;;;;;5001944;28;20034;-54
2021/12/09 10:45:21;;;;;;;10.57;9.32;;;17.60;50.10;;;;;;5001851;28;20505;-55
2021/12/09 10:48:18;;;;;;;10.73;9.13;;;17.60;50.20;;;;;;4999380;28;20026;-54
2021/12/09 10:51:06;;;;;;;11.00;9.15;;;17.60;50.20;;;;;;5012717;22;20109;-57
2021/12/09 10:53:46;;;;;;;12.65;9.35;;;17.60;50.20;;;;;;4998765;28;20026;-58
2021/12/09 10:56:13;;;;;;;11.32;9.15;;;17.50;50.10;;;;;;4999189;28;20121;-58
2021/12/09 10:58:44;;;;;;;10.52;8.98;;;17.60;50.20;;;;;;4991703;28;20541;-59
2021/12/09 11:01:11;;;;;;;10.63;8.45;;;17.50;50.10;;;;;;4978841;28;20119;-58
2021/12/09 11:03:38;;;;;;;9.38;8.27;;;17.50;50.20;;;;;;4979419;28;20641;-57
2021/12/09 11:06:11;;;;;;;11.10;8.70;;;17.50;50.20;;;;;;4981694;28;20117;-54
2021/12/09 11:08:40;;;;;;;10.38;8.30;;;17.50;50.20;;;;;;4984651;28;20493;-56
2021/12/09 11:11:12;;;;;;;9.43;7.95;;;17.50;50.30;;;;;;4984283;28;20043;-58
2021/12/09 11:13:54;;;;;;;10.07;8.70;;;17.50;50.30;;;;;;4985487;28;20409;-58
2021/12/09 11:16:34;;;;;;;9.02;8.13;;;17.50;50.30;;;;;;4979069;28;20041;-57
2021/12/09 11:19:34;;;;;;;9.57;8.15;;;17.50;50.30;;;;;;4983449;28;20034;-59
2021/12/09 11:22:02;;;;;;;10.15;8.25;;;17.40;50.20;;;;;;4982343;28;20077;-57
2021/12/09 11:24:31;;;;;;;10.57;8.57;;;17.50;50.30;;;;;;4982835;28;20702;-56
2021/12/09 11:27:00;;;;;;;8.18;7.25;;;17.40;50.20;;;;;;4983964;28;20081;-57
2021/12/09 11:29:28;;;;;;;9.68;8.43;;;17.40;50.20;;;;;;4984520;28;20068;-59
2021/12/09 11:32:07;;;;;;;9.45;8.27;;;17.50;50.30;;;;;;4985543;28;20521;-57
2021/12/09 11:34:58;;;;;;;9.85;7.78;;;17.40;50.20;;;;;;4982404;28;20028;-58
2021/12/09 11:39:58;;;;;;;8.38;7.47;;;17.40;50.20;;;;;;4983778;28;20605;-58
2021/12/09 11:42:31;;;;;;;9.50;8.05;;;17.40;50.30;;;;;;4984781;28;20035;-59
2021/12/09 11:44:57;;;;;;;9.25;7.70;;;17.40;50.30;;;;;;4982753;28;20031;-58
2021/12/09 11:47:22;;;;;;;7.93;7.13;;;17.40;50.30;;;;;;4985214;28;20038;-60
2021/12/09 11:49:51;;;;;;;9.00;7.60;;;17.40;51.00;;;;;;4982649;28;20034;-57
2021/12/09 11:52:17;;;;;;;10.27;8.02;;;17.40;50.40;;;;;;4984240;28;20041;-56
2021/12/09 11:54:54;;;;;;;9.05;7.70;;;17.40;50.40;;;;;;4984643;28;20043;-56
2021/12/09 11:57:59;;;;;;;8.75;7.78;;;17.40;50.40;;;;;;4983484;28;20041;-56
2021/12/09 12:06:53;;;;;;;8.52;7.45;;;17.50;50.30;;;;;;4984402;28;20825;-59
2021/12/09 12:12:48;;;;;;;8.82;7.93;;;17.50;50.10;;;;;;4984120;28;20547;-56
2021/12/09 12:35:01;;;;;;;7.90;6.50;;;17.50;50.00;;;;;;4983375;28;20063;-57
2021/12/09 12:37:11;;;;;;;7.95;6.88;;;17.50;50.10;;;;;;4978011;28;20684;-59
2021/12/09 12:42:25;;;;;;;7.25;6.45;;;17.60;50.10;;;;;;4983756;28;20037;-55
2021/12/09 12:45:46;;;;;;;8.13;6.93;;;17.50;50.00;;;;;;4983983;28;20042;-58
2021/12/09 12:48:52;;;;;;;6.90;6.20;;;17.50;50.10;;;;;;4982687;28;20440;-54
2021/12/09 12:51:30;;;;;;;6.43;5.65;;;17.50;50.10;;;;;;4981723;28;20057;-58
2021/12/09 12:54:25;;;;;;;6.70;6.00;;;17.50;50.10;;;;;;4983928;28;20022;-57
2021/12/09 12:56:56;;;;;;;6.75;5.85;;;17.50;50.20;;;;;;4982585;28;20030;-58
2021/12/09 12:59:28;;;;;;;7.25;6.55;;;17.50;50.10;;;;;;4983011;28;20038;-58
2021/12/09 13:05:14;;;;;;;7.00;6.13;;;17.50;50.10;;;;;;4982796;28;20037;-59
2021/12/09 13:11:05;;;;;;;7.20;5.78;;;17.50;50.90;;;;;;4982274;28;20037;-57
2021/12/09 13:14:02;;;;;;;6.10;5.50;;;17.50;50.20;;;;;;4982495;28;20112;-58
2021/12/09 13:21:59;;;;;;;7.43;6.28;;;17.50;50.20;;;;;;4982520;28;20081;-56
2021/12/09 13:24:36;;;;;;;5.85;5.25;;;17.50;50.20;;;;;;4982711;28;20034;-58
2021/12/09 13:27:07;;;;;;;6.47;5.80;;;17.50;50.20;;;;;;4982766;28;20030;-58